Time;durP1;ratioP1;P1;durP2;ratioP2;P2;SDS_P1;SDS_P2;PMS_P1;PMS_P2;Temp;Humidity;BMP_temperature;BMP_pressure;BME280_temperature;BME280_humidity;BME280_pressure;Samples;Min_cycle;Max_cycle;Signal;HPM_P1;HPM_P2
2022/10/05 00:01:34;;;;;;;2.00;1.85;;;14.40;72.90;;;;;;5083905;28;20044;-62
2022/10/05 00:04:14;;;;;;;1.75;1.65;;;14.40;72.90;;;;;;5093224;28;20557;-62
2022/10/05 00:06:46;;;;;;;1.80;1.70;;;14.40;72.50;;;;;;5093356;28;20510;-62
2022/10/05 00:09:19;;;;;;;2.10;1.90;;;14.40;73.10;;;;;;5088314;28;20035;-64
2022/10/05 00:11:45;;;;;;;3.10;2.10;;;14.40;73.00;;;;;;5090837;28;20029;-61
2022/10/05 00:14:19;;;;;;;1.90;1.80;;;14.40;73.20;;;;;;5088109;28;20055;-64
2022/10/05 00:16:45;;;;;;;1.75;1.65;;;14.40;73.30;;;;;;5088227;28;20028;-62
2022/10/05 00:19:20;;;;;;;2.28;1.90;;;14.40;73.20;;;;;;5087974;28;20041;-63
2022/10/05 00:21:46;;;;;;;2.53;2.13;;;14.50;73.30;;;;;;5088195;28;20043;-62
2022/10/05 00:24:14;;;;;;;2.00;1.90;;;14.40;73.30;;;;;;5092495;28;20084;-62
2022/10/05 00:26:40;;;;;;;2.38;1.90;;;14.40;73.30;;;;;;5093998;28;20017;-62
2022/10/05 00:29:21;;;;;;;2.17;1.98;;;14.40;73.30;;;;;;5089409;28;20021;-62
2022/10/05 00:31:48;;;;;;;2.10;2.00;;;14.50;73.40;;;;;;5092244;28;20040;-63
2022/10/05 00:34:14;;;;;;;1.77;1.65;;;14.40;73.50;;;;;;5095502;28;20032;-64
2022/10/05 00:36:40;;;;;;;2.20;2.00;;;14.40;73.40;;;;;;5087134;28;20020;-62
2022/10/05 00:39:05;;;;;;;2.50;2.00;;;14.40;73.50;;;;;;5080612;28;20167;-62
2022/10/05 00:41:37;;;;;;;2.17;1.98;;;14.40;73.50;;;;;;5087591;28;20024;-62
2022/10/05 00:44:48;;;;;;;2.28;2.08;;;14.50;73.80;;;;;;5086896;28;20043;-61
2022/10/05 00:47:39;;;;;;;2.20;2.10;;;14.40;73.50;;;;;;5055636;28;20096;-62
2022/10/05 00:50:11;;;;;;;;;;;14.40;73.60;;;;;;5066375;28;20033;-61
2022/10/05 00:52:39;;;;;;;2.25;1.77;;;14.40;73.60;;;;;;5078664;28;20532;-62
2022/10/05 00:55:24;;;;;;;2.30;2.10;;;14.40;73.60;;;;;;5088091;28;20035;-62
2022/10/05 00:58:10;;;;;;;2.50;2.00;;;14.40;73.70;;;;;;5091669;28;20028;-61
2022/10/05 01:01:03;;;;;;;2.20;2.00;;;14.30;73.70;;;;;;5086291;28;20063;-62
2022/10/05 01:03:42;;;;;;;2.65;2.17;;;14.40;73.80;;;;;;5085150;28;20127;-62
2022/10/05 01:06:37;;;;;;;2.17;2.05;;;14.40;73.90;;;;;;5089948;28;20032;-62
2022/10/05 01:09:47;;;;;;;2.63;1.88;;;14.40;73.80;;;;;;5083728;28;20549;-61
2022/10/05 01:12:25;;;;;;;2.38;1.85;;;14.30;73.80;;;;;;5076800;28;20123;-64
2022/10/05 01:15:15;;;;;;;1.80;1.70;;;14.40;73.90;;;;;;5092651;28;20036;-63
2022/10/05 01:18:05;;;;;;;2.05;1.92;;;14.40;73.90;;;;;;5088337;28;20017;-66
2022/10/05 01:20:38;;;;;;;1.80;1.70;;;14.30;73.90;;;;;;5081408;28;20036;-66
2022/10/05 01:23:12;;;;;;;1.80;1.70;;;14.40;74.10;;;;;;5085481;28;20055;-63
2022/10/05 01:25:38;;;;;;;1.80;1.70;;;14.30;74.30;;;;;;5082197;28;20086;-62
2022/10/05 01:28:16;;;;;;;1.85;1.75;;;14.30;74.30;;;;;;5090495;28;20028;-62
2022/10/05 01:30:51;;;;;;;2.10;2.00;;;14.40;74.30;;;;;;5078341;28;20085;-62
2022/10/05 01:33:36;;;;;;;2.30;1.98;;;14.40;74.40;;;;;;5092447;28;20029;-64
2022/10/05 01:36:08;;;;;;;2.08;1.92;;;14.30;74.30;;;;;;5091512;28;20032;-62
2022/10/05 01:38:48;;;;;;;1.80;1.70;;;14.30;74.50;;;;;;5089668;28;20039;-62
2022/10/05 01:41:35;;;;;;;1.77;1.67;;;14.30;74.50;;;;;;5084558;28;20115;-62
2022/10/05 01:44:10;;;;;;;1.80;1.70;;;14.30;74.50;;;;;;5087638;28;20044;-62
2022/10/05 01:46:43;;;;;;;2.22;1.95;;;14.30;74.60;;;;;;5089334;28;20581;-61
2022/10/05 01:49:21;;;;;;;2.38;2.17;;;14.40;74.70;;;;;;5091583;28;20028;-63
2022/10/05 01:52:24;;;;;;;1.85;1.75;;;14.30;74.60;;;;;;5090357;28;20032;-65
2022/10/05 01:55:11;;;;;;;1.80;1.70;;;14.30;74.60;;;;;;5083544;28;20030;-63
2022/10/05 01:58:08;;;;;;;2.38;1.80;;;14.30;74.60;;;;;;5086403;28;20028;-62
2022/10/05 02:01:03;;;;;;;1.70;1.60;;;14.30;74.70;;;;;;5089263;28;20041;-63
2022/10/05 02:03:52;;;;;;;2.30;2.10;;;14.30;74.80;;;;;;5067439;28;20072;-63
2022/10/05 02:06:24;;;;;;;2.08;1.88;;;14.30;74.90;;;;;;5085692;28;20013;-64
2022/10/05 02:09:08;;;;;;;1.88;1.77;;;14.30;75.10;;;;;;5091573;28;20016;-65
2022/10/05 02:11:36;;;;;;;2.08;1.90;;;14.20;75.00;;;;;;5083043;28;20028;-62
2022/10/05 02:14:08;;;;;;;1.98;1.88;;;14.20;75.20;;;;;;5091724;28;20020;-62
2022/10/05 02:16:47;;;;;;;2.20;2.00;;;14.20;75.30;;;;;;5084085;28;20017;-62
2022/10/05 02:19:38;;;;;;;2.30;2.10;;;14.20;75.30;;;;;;5089351;28;20107;-63
2022/10/05 02:22:16;;;;;;;2.10;1.90;;;14.20;75.30;;;;;;5087316;28;20028;-62
2022/10/05 02:24:55;;;;;;;2.17;1.98;;;14.20;75.30;;;;;;5089277;28;20578;-62
2022/10/05 02:27:27;;;;;;;2.08;1.98;;;14.10;75.30;;;;;;5089871;28;20020;-63
2022/10/05 02:29:58;;;;;;;2.00;1.90;;;14.10;75.50;;;;;;5091479;28;20033;-63
2022/10/05 02:32:27;;;;;;;2.50;2.30;;;14.10;75.50;;;;;;5083077;28;20020;-65
2022/10/05 02:35:00;;;;;;;1.90;1.80;;;14.10;75.70;;;;;;5087881;28;20025;-63
2022/10/05 02:37:42;;;;;;;2.20;1.98;;;14.10;75.70;;;;;;5082620;28;20080;-63
2022/10/05 02:40:17;;;;;;;2.10;2.00;;;14.00;75.60;;;;;;5088311;28;20107;-63
2022/10/05 02:43:11;;;;;;;2.25;2.05;;;14.00;75.80;;;;;;5088242;28;20033;-61
2022/10/05 02:45:51;;;;;;;2.25;2.10;;;14.00;75.80;;;;;;5076495;28;20227;-61
2022/10/05 02:48:42;;;;;;;2.53;2.30;;;14.00;75.80;;;;;;5081285;28;20036;-64
2022/10/05 02:51:24;;;;;;;2.47;2.27;;;14.00;76.00;;;;;;5091158;28;20013;-63
2022/10/05 02:53:53;;;;;;;2.50;2.30;;;14.00;76.00;;;;;;5081794;28;20060;-63
2022/10/05 02:56:34;;;;;;;2.05;1.95;;;14.00;76.00;;;;;;5083665;28;20070;-64
2022/10/05 02:59:03;;;;;;;1.92;1.80;;;13.90;76.00;;;;;;5083052;28;20029;-62
2022/10/05 03:01:46;;;;;;;2.17;2.00;;;13.90;75.90;;;;;;5086674;28;20110;-63
2022/10/05 03:04:39;;;;;;;2.05;1.85;;;13.90;76.00;;;;;;5086851;28;20380;-62
2022/10/05 03:07:11;;;;;;;1.92;1.83;;;13.90;76.00;;;;;;5083966;28;20022;-61
2022/10/05 03:09:54;;;;;;;2.05;1.95;;;13.80;76.20;;;;;;5085229;28;20024;-62
2022/10/05 03:12:35;;;;;;;2.42;1.90;;;13.80;76.30;;;;;;5090671;28;20024;-64
2022/10/05 03:15:29;;;;;;;2.20;2.00;;;13.80;76.30;;;;;;5087388;28;20029;-62
2022/10/05 03:18:36;;;;;;;1.85;1.75;;;13.80;76.30;;;;;;5085246;28;20020;-61
2022/10/05 03:21:16;;;;;;;2.33;2.00;;;13.80;76.20;;;;;;5040684;28;20033;-63
2022/10/05 03:23:51;;;;;;;2.83;2.30;;;13.80;76.30;;;;;;5044834;28;20052;-62
2022/10/05 03:26:19;;;;;;;2.65;2.20;;;13.80;76.30;;;;;;5067924;28;20044;-63
2022/10/05 03:29:09;;;;;;;2.22;2.00;;;13.70;76.30;;;;;;5081086;28;20025;-62
2022/10/05 03:31:53;;;;;;;2.03;1.92;;;13.70;76.30;;;;;;5085694;28;20043;-64
2022/10/05 03:34:23;;;;;;;2.33;2.13;;;13.70;76.40;;;;;;5089189;28;20037;-63
2022/10/05 03:37:01;;;;;;;2.10;1.90;;;13.60;76.40;;;;;;5086702;28;20039;-61
2022/10/05 03:39:38;;;;;;;2.40;2.20;;;13.60;76.40;;;;;;5080751;28;20016;-64
2022/10/05 03:42:24;;;;;;;2.45;2.25;;;13.60;76.60;;;;;;5092006;28;20032;-61
2022/10/05 03:45:08;;;;;;;2.53;2.33;;;13.60;76.60;;;;;;5083111;28;20063;-61
2022/10/05 03:47:49;;;;;;;2.33;2.20;;;13.60;76.70;;;;;;5083929;28;20092;-62
2022/10/05 03:50:23;;;;;;;;;;;13.60;76.80;;;;;;5093740;28;20020;-64
2022/10/05 03:52:56;;;;;;;2.15;2.05;;;13.60;76.80;;;;;;5085227;28;20011;-64
2022/10/05 03:55:25;;;;;;;2.40;2.20;;;13.50;76.80;;;;;;5085082;28;20033;-63
2022/10/05 03:57:55;;;;;;;2.45;2.25;;;13.50;76.80;;;;;;5093888;28;20048;-62
2022/10/05 04:00:22;;;;;;;3.53;2.38;;;13.50;76.90;;;;;;5089762;28;20051;-65
2022/10/05 04:03:20;;;;;;;2.30;2.10;;;13.50;77.00;;;;;;5094247;28;20046;-62
2022/10/05 04:05:50;;;;;;;2.40;2.03;;;13.50;76.90;;;;;;5085469;28;20083;-62
2022/10/05 04:08:25;;;;;;;2.30;2.10;;;13.50;77.00;;;;;;5092993;28;20084;-64
2022/10/05 04:10:54;;;;;;;2.40;2.03;;;13.50;77.00;;;;;;5093921;28;20021;-62
2022/10/05 04:13:30;;;;;;;2.25;2.10;;;13.50;77.10;;;;;;5092963;28;20484;-64
2022/10/05 04:16:23;;;;;;;2.58;2.38;;;13.50;77.10;;;;;;5090477;28;20055;-62
2022/10/05 04:18:49;;;;;;;3.03;2.33;;;13.50;77.10;;;;;;5087943;28;20020;-61
2022/10/05 04:21:33;;;;;;;2.20;2.10;;;13.50;77.20;;;;;;5080692;28;20031;-62
2022/10/05 04:24:31;;;;;;;2.35;2.15;;;13.50;77.20;;;;;;5088534;28;20024;-62
2022/10/05 04:27:01;;;;;;;2.40;2.20;;;13.50;77.10;;;;;;5088238;28;20025;-65
2022/10/05 04:29:33;;;;;;;2.30;2.10;;;13.50;77.30;;;;;;5088138;28;20028;-65
2022/10/05 04:32:04;;;;;;;2.20;2.00;;;13.50;77.20;;;;;;5088416;28;20035;-62
2022/10/05 04:34:40;;;;;;;2.10;2.00;;;13.50;77.30;;;;;;5081638;28;20051;-62
2022/10/05 04:37:20;;;;;;;2.30;2.15;;;13.50;77.30;;;;;;5090657;28;20059;-62
2022/10/05 04:40:04;;;;;;;3.10;2.50;;;13.60;77.40;;;;;;5083291;28;20032;-63
2022/10/05 04:42:43;;;;;;;2.50;2.25;;;13.60;77.30;;;;;;5084475;28;20032;-63
2022/10/05 04:45:47;;;;;;;2.95;2.35;;;13.60;77.40;;;;;;5089935;28;20054;-61
2022/10/05 04:48:26;;;;;;;2.72;2.53;;;13.60;77.30;;;;;;5089026;28;20100;-62
2022/10/05 04:51:32;;;;;;;2.53;2.33;;;13.60;77.20;;;;;;5079976;28;20115;-62
2022/10/05 04:54:14;;;;;;;2.60;2.40;;;13.60;77.30;;;;;;5087243;28;20041;-62
2022/10/05 04:57:01;;;;;;;2.80;2.50;;;13.60;77.50;;;;;;5087693;28;20035;-62
2022/10/05 04:59:34;;;;;;;3.78;2.42;;;13.60;77.30;;;;;;5085585;28;20024;-63
2022/10/05 05:02:36;;;;;;;2.60;2.40;;;13.60;77.30;;;;;;5087864;28;20013;-62
2022/10/05 05:05:17;;;;;;;2.88;2.58;;;13.60;77.40;;;;;;5060040;28;20115;-62
2022/10/05 05:08:01;;;;;;;2.65;2.45;;;13.60;77.40;;;;;;5082003;28;20035;-62
2022/10/05 05:10:56;;;;;;;2.72;2.53;;;13.60;77.40;;;;;;5084662;28;20067;-63
2022/10/05 05:13:56;;;;;;;2.95;2.65;;;13.60;77.40;;;;;;5083836;28;20028;-62
2022/10/05 05:16:42;;;;;;;3.75;2.60;;;13.60;77.30;;;;;;5077557;28;20048;-63
2022/10/05 05:19:32;;;;;;;2.60;2.40;;;13.60;77.30;;;;;;5084201;28;20021;-62
2022/10/05 05:22:35;;;;;;;2.80;2.60;;;13.60;77.40;;;;;;5078730;28;20024;-63
2022/10/05 05:25:33;;;;;;;3.80;2.90;;;13.60;77.40;;;;;;5085774;28;20107;-62
2022/10/05 05:28:24;;;;;;;2.67;2.40;;;13.70;77.30;;;;;;5092261;28;20078;-62
2022/10/05 05:31:09;;;;;;;3.00;2.70;;;13.70;77.10;;;;;;5056550;28;20029;-62
2022/10/05 05:33:55;;;;;;;3.03;2.75;;;13.70;77.10;;;;;;5087681;28;20035;-62
2022/10/05 05:36:33;;;;;;;2.88;2.65;;;13.70;77.10;;;;;;5091568;28;20036;-64
2022/10/05 05:39:27;;;;;;;3.15;2.85;;;13.70;77.10;;;;;;5089125;28;20040;-64
2022/10/05 05:42:15;;;;;;;3.38;2.90;;;13.80;77.20;;;;;;5082750;28;20025;-62
2022/10/05 05:44:48;;;;;;;3.03;2.55;;;13.80;77.20;;;;;;5083714;28;20047;-63
2022/10/05 05:47:18;;;;;;;3.03;2.80;;;13.80;77.30;;;;;;5083391;28;20021;-62
2022/10/05 05:49:47;;;;;;;2.90;2.67;;;13.80;77.30;;;;;;5083412;28;20045;-63
2022/10/05 05:52:44;;;;;;;3.17;2.80;;;13.90;77.30;;;;;;5079627;28;20040;-64
2022/10/05 05:55:18;;;;;;;3.20;2.75;;;13.90;77.10;;;;;;5084559;28;20075;-63
2022/10/05 05:57:53;;;;;;;6.40;3.80;;;13.90;77.10;;;;;;5078680;28;20012;-64
2022/10/05 06:00:23;;;;;;;3.05;2.70;;;13.90;76.90;;;;;;5079297;28;20016;-64
2022/10/05 06:03:12;;;;;;;4.18;3.03;;;13.90;77.00;;;;;;5085431;28;20041;-63
2022/10/05 06:05:42;;;;;;;2.60;2.40;;;14.00;77.00;;;;;;5080042;28;20074;-64
2022/10/05 06:08:42;;;;;;;2.60;2.40;;;14.00;77.20;;;;;;5080822;28;20032;-63
2022/10/05 06:11:28;;;;;;;3.47;3.17;;;14.00;77.10;;;;;;5079779;28;20637;-64
2022/10/05 06:14:03;;;;;;;3.60;3.20;;;14.10;76.90;;;;;;5082067;28;20033;-64
2022/10/05 06:16:34;;;;;;;4.00;3.40;;;14.10;76.60;;;;;;5088743;28;20031;-65
2022/10/05 06:19:24;;;;;;;4.00;3.20;;;14.10;76.60;;;;;;5083055;28;20412;-65
2022/10/05 06:22:00;;;;;;;3.17;2.88;;;14.10;76.50;;;;;;5081260;28;20061;-65
2022/10/05 06:24:49;;;;;;;5.30;3.40;;;14.10;76.50;;;;;;5085404;28;20035;-65
2022/10/05 06:27:25;;;;;;;3.35;2.80;;;14.10;76.20;;;;;;5092939;28;20171;-66
2022/10/05 06:30:06;;;;;;;3.63;3.00;;;14.10;76.20;;;;;;5089569;28;20015;-66
2022/10/05 06:32:47;;;;;;;3.00;2.70;;;14.00;75.70;;;;;;5079407;28;20025;-66
2022/10/05 06:35:50;;;;;;;3.33;3.03;;;14.00;75.80;;;;;;5076563;28;20077;-66
2022/10/05 06:38:31;;;;;;;2.70;2.50;;;14.00;75.80;;;;;;5076223;28;20059;-65
2022/10/05 06:41:31;;;;;;;2.90;2.70;;;13.90;76.00;;;;;;5081991;28;20032;-65
2022/10/05 06:44:16;;;;;;;2.90;2.60;;;13.90;76.00;;;;;;5078929;28;20047;-65
2022/10/05 06:46:55;;;;;;;3.28;2.75;;;13.90;75.90;;;;;;5076730;28;20017;-66
2022/10/05 06:49:31;;;;;;;3.17;2.65;;;13.90;75.90;;;;;;5077475;28;20028;-64
2022/10/05 06:52:02;;;;;;;3.30;2.60;;;14.00;75.90;;;;;;5080571;28;20036;-66
2022/10/05 06:54:51;;;;;;;3.47;3.15;;;14.00;75.90;;;;;;5088130;28;20032;-65
2022/10/05 06:57:22;;;;;;;3.67;3.10;;;14.00;75.40;;;;;;5079643;28;20029;-64
2022/10/05 07:00:04;;;;;;;3.30;2.70;;;14.10;75.30;;;;;;5077055;28;20025;-65
2022/10/05 07:02:39;;;;;;;2.92;2.70;;;14.10;75.20;;;;;;5075712;28;20029;-66
2022/10/05 07:05:37;;;;;;;2.83;2.63;;;14.10;75.10;;;;;;5078366;28;20033;-64
2022/10/05 07:08:14;;;;;;;3.03;2.60;;;14.10;75.00;;;;;;5066460;28;20033;-69
2022/10/05 07:11:04;;;;;;;3.08;2.55;;;14.10;75.10;;;;;;5072137;28;20141;-64
2022/10/05 07:14:04;;;;;;;2.85;2.60;;;14.10;75.00;;;;;;5074907;28;20048;-64
2022/10/05 07:16:40;;;;;;;3.30;2.63;;;14.20;74.90;;;;;;5060043;28;20048;-65
2022/10/05 07:19:27;;;;;;;2.72;2.53;;;14.20;74.80;;;;;;5058683;28;20078;-63
2022/10/05 07:22:26;;;;;;;2.60;2.40;;;14.20;74.70;;;;;;5062035;28;20023;-62
2022/10/05 07:25:16;;;;;;;3.88;3.20;;;14.30;74.60;;;;;;5062304;28;21585;-65
2022/10/05 07:28:16;;;;;;;3.40;3.05;;;14.30;74.40;;;;;;5060128;28;20037;-65
2022/10/05 07:31:06;;;;;;;3.42;2.85;;;14.30;74.20;;;;;;5066300;28;20028;-65
2022/10/05 07:33:46;;;;;;;3.05;2.78;;;14.30;74.00;;;;;;5061243;28;20036;-63
2022/10/05 07:39:32;;;;;;;2.80;2.50;;;14.30;74.20;;;;;;5063010;28;20667;-63
2022/10/05 07:42:24;;;;;;;3.35;2.80;;;14.30;74.40;;;;;;5061891;28;20534;-64
2022/10/05 07:45:06;;;;;;;4.20;2.80;;;14.40;74.20;;;;;;5042544;28;20086;-63
2022/10/05 07:47:34;;;;;;;3.20;2.70;;;14.50;74.30;;;;;;5056639;28;20021;-64
2022/10/05 07:50:09;;;;;;;3.95;2.72;;;14.60;74.20;;;;;;5056497;28;20024;-64
2022/10/05 07:52:41;;;;;;;3.20;2.70;;;14.60;73.60;;;;;;5062916;28;21543;-64
2022/10/05 07:55:18;;;;;;;2.70;2.50;;;14.60;73.30;;;;;;5068834;28;20020;-64
2022/10/05 07:58:12;;;;;;;3.42;2.53;;;14.70;73.10;;;;;;5063590;28;20029;-63
2022/10/05 08:00:55;;;;;;;3.58;2.92;;;14.70;72.80;;;;;;5051339;28;20028;-64
2022/10/05 08:03:44;;;;;;;2.90;2.55;;;14.70;72.80;;;;;;5053998;28;20051;-64
2022/10/05 08:06:33;;;;;;;3.28;2.30;;;14.70;72.80;;;;;;5055535;28;20037;-62
2022/10/05 08:09:03;;;;;;;3.47;2.70;;;14.70;72.90;;;;;;5058702;28;20032;-64
2022/10/05 08:11:32;;;;;;;2.55;2.35;;;14.80;73.00;;;;;;5067072;28;20033;-60
2022/10/05 08:14:11;;;;;;;2.95;2.70;;;14.70;72.60;;;;;;5057175;28;20036;-63
2022/10/05 08:16:37;;;;;;;2.60;2.40;;;14.70;72.40;;;;;;5061215;28;20162;-63
2022/10/05 08:19:16;;;;;;;2.08;1.98;;;14.70;72.40;;;;;;5053696;28;20048;-63
2022/10/05 08:21:53;;;;;;;2.65;2.45;;;14.70;72.60;;;;;;5056869;28;20557;-63
2022/10/05 08:24:40;;;;;;;2.17;2.08;;;14.70;72.60;;;;;;5059185;28;20017;-65
2022/10/05 08:27:44;;;;;;;2.50;2.30;;;14.80;72.60;;;;;;5056499;28;20055;-64
2022/10/05 08:30:12;;;;;;;2.40;2.20;;;14.80;72.50;;;;;;5008972;28;20044;-65
2022/10/05 08:32:52;;;;;;;2.50;2.28;;;14.90;72.20;;;;;;5055473;28;20032;-63
2022/10/05 08:35:20;;;;;;;2.40;2.20;;;15.00;71.90;;;;;;5066679;28;20090;-64
2022/10/05 08:37:47;;;;;;;2.65;2.45;;;15.00;71.60;;;;;;5063009;28;20033;-64
2022/10/05 08:40:57;;;;;;;2.58;2.38;;;15.00;71.10;;;;;;5062128;28;20029;-63
2022/10/05 08:43:54;;;;;;;3.50;2.25;;;15.00;71.10;;;;;;5050646;28;20065;-64
2022/10/05 08:46:29;;;;;;;1.98;1.88;;;15.00;71.20;;;;;;5075375;28;20009;-64
2022/10/05 08:49:25;;;;;;;2.10;1.95;;;15.00;71.20;;;;;;5072127;28;20044;-64
2022/10/05 08:52:02;;;;;;;2.10;1.90;;;15.10;71.30;;;;;;5068674;28;20088;-64
2022/10/05 08:54:35;;;;;;;2.15;1.98;;;15.10;71.20;;;;;;5074413;28;20037;-65
2022/10/05 08:57:23;;;;;;;2.10;1.92;;;15.20;70.90;;;;;;5074709;28;20029;-64
2022/10/05 09:00:20;;;;;;;2.42;2.03;;;15.30;71.00;;;;;;5065592;28;20021;-64
2022/10/05 09:03:23;;;;;;;2.33;2.13;;;15.30;70.90;;;;;;5037725;28;20110;-64
2022/10/05 09:06:13;;;;;;;2.30;2.10;;;15.40;70.80;;;;;;5064836;28;20021;-60
2022/10/05 09:08:57;;;;;;;1.90;1.80;;;15.50;70.50;;;;;;5074320;28;20016;-65
2022/10/05 09:11:56;;;;;;;2.20;2.00;;;15.50;70.30;;;;;;5069971;28;20037;-64
2022/10/05 09:14:28;;;;;;;2.30;2.10;;;15.60;70.00;;;;;;5073394;28;20044;-64
2022/10/05 09:17:32;;;;;;;2.63;2.30;;;15.60;70.00;;;;;;5074237;28;20024;-64
2022/10/05 09:20:16;;;;;;;1.75;1.65;;;15.60;69.90;;;;;;5064219;28;20040;-64
2022/10/05 09:22:58;;;;;;;2.17;1.98;;;15.60;70.10;;;;;;5073872;28;20303;-66
2022/10/05 09:25:40;;;;;;;1.90;1.80;;;15.70;70.10;;;;;;5076115;28;20096;-65
2022/10/05 09:28:17;;;;;;;2.00;1.90;;;15.70;70.00;;;;;;5070454;28;20035;-64
2022/10/05 09:30:52;;;;;;;1.83;1.73;;;15.80;69.80;;;;;;5058106;28;20065;-64
2022/10/05 09:33:29;;;;;;;2.00;1.75;;;15.80;69.40;;;;;;5068733;28;20021;-65
2022/10/05 09:36:04;;;;;;;2.95;2.05;;;15.90;69.10;;;;;;5057891;28;20028;-65
2022/10/05 09:39:14;;;;;;;2.58;2.13;;;15.90;68.60;;;;;;5079187;28;20032;-65
2022/10/05 09:42:26;;;;;;;3.05;2.05;;;15.90;68.40;;;;;;5075010;28;20011;-63
2022/10/05 09:45:08;;;;;;;2.45;2.20;;;15.90;68.30;;;;;;5033469;28;20037;-64
2022/10/05 09:48:10;;;;;;;3.10;1.77;;;15.90;68.60;;;;;;5074085;28;20189;-65
2022/10/05 09:51:18;;;;;;;1.98;1.88;;;15.90;68.50;;;;;;5063450;28;20059;-63
2022/10/05 09:54:22;;;;;;;2.45;2.20;;;15.90;67.90;;;;;;5065353;28;20038;-64
2022/10/05 09:57:05;;;;;;;1.92;1.83;;;15.90;67.80;;;;;;5070392;28;20047;-65
2022/10/05 09:59:37;;;;;;;2.08;1.90;;;16.00;67.80;;;;;;5064197;28;20013;-65
2022/10/05 10:02:35;;;;;;;2.10;1.90;;;15.90;67.70;;;;;;5065851;28;20025;-64
2022/10/05 10:05:04;;;;;;;2.10;1.90;;;15.90;67.50;;;;;;5067053;28;20371;-64
2022/10/05 10:07:57;;;;;;;2.85;2.25;;;15.90;67.50;;;;;;5064016;28;20024;-62
2022/10/05 10:11:00;;;;;;;2.00;1.90;;;15.90;67.40;;;;;;5068239;28;20032;-64
2022/10/05 10:13:44;;;;;;;1.75;1.65;;;15.80;67.40;;;;;;5072077;28;20044;-64
2022/10/05 10:16:52;;;;;;;2.33;1.90;;;15.80;67.60;;;;;;5065252;28;20020;-64
2022/10/05 10:19:33;;;;;;;2.30;1.95;;;15.80;67.50;;;;;;5071877;28;20031;-65
2022/10/05 10:22:11;;;;;;;2.35;2.10;;;15.70;67.70;;;;;;5069087;28;20056;-64
2022/10/05 10:24:55;;;;;;;2.00;1.85;;;15.70;67.70;;;;;;5072368;28;20032;-64
2022/10/05 10:27:46;;;;;;;1.60;1.50;;;15.70;67.60;;;;;;5068237;28;21159;-64
2022/10/05 10:30:23;;;;;;;1.90;1.80;;;15.70;67.80;;;;;;5061940;28;20021;-64
2022/10/05 10:33:12;;;;;;;1.95;1.73;;;15.80;67.90;;;;;;5074082;28;20080;-65
2022/10/05 10:36:11;;;;;;;2.45;2.25;;;15.80;67.70;;;;;;5075022;28;20074;-63
2022/10/05 10:39:03;;;;;;;2.00;1.90;;;15.80;67.30;;;;;;5056469;28;20036;-65
2022/10/05 10:41:31;;;;;;;;;;;15.70;67.10;;;;;;5076177;28;20032;-65
2022/10/05 10:44:25;;;;;;;1.20;1.20;;;15.70;66.80;;;;;;5072484;28;19987;-64
2022/10/05 10:47:21;;;;;;;1.58;1.48;;;15.70;67.50;;;;;;5072775;28;20047;-65
2022/10/05 10:50:27;;;;;;;1.63;1.52;;;15.70;67.50;;;;;;5074948;28;20021;-65
2022/10/05 10:53:30;;;;;;;1.85;1.70;;;15.80;67.60;;;;;;5071838;28;20044;-65
2022/10/05 10:56:14;;;;;;;1.98;1.40;;;15.80;67.50;;;;;;5059708;28;20486;-65
2022/10/05 10:58:58;;;;;;;1.65;1.55;;;15.90;67.70;;;;;;5049306;28;21825;-62
2022/10/05 11:01:33;;;;;;;2.83;1.80;;;15.90;67.40;;;;;;5074494;28;20040;-64
2022/10/05 11:04:42;;;;;;;1.80;1.70;;;15.90;67.40;;;;;;5056891;28;20115;-63
2022/10/05 11:07:50;;;;;;;1.60;1.50;;;15.90;67.00;;;;;;5059333;28;20149;-65
2022/10/05 11:10:50;;;;;;;1.70;1.60;;;15.90;67.20;;;;;;5062998;28;20090;-63
2022/10/05 11:14:20;;;;;;;3.40;1.77;;;15.90;67.20;;;;;;5072497;28;20071;-63
2022/10/05 11:17:02;;;;;;;1.70;1.60;;;16.00;66.80;;;;;;5011091;28;20024;-63
2022/10/05 11:19:42;;;;;;;1.88;1.77;;;15.90;66.80;;;;;;5066518;28;20029;-64
2022/10/05 11:22:54;;;;;;;1.70;1.60;;;15.90;66.80;;;;;;5067529;28;20253;-63
2022/10/05 11:25:43;;;;;;;2.67;1.70;;;15.90;66.70;;;;;;5070709;28;20032;-63
2022/10/05 11:28:30;;;;;;;1.65;1.55;;;16.00;67.10;;;;;;5067830;28;20295;-63
2022/10/05 11:31:18;;;;;;;1.27;1.15;;;16.10;67.00;;;;;;5073931;28;20120;-64
2022/10/05 11:34:02;;;;;;;1.42;1.33;;;16.10;67.10;;;;;;5047553;28;20059;-64
2022/10/05 11:36:37;;;;;;;1.35;1.25;;;16.20;67.10;;;;;;5063920;28;20013;-64
2022/10/05 11:39:24;;;;;;;2.58;1.80;;;16.20;67.00;;;;;;5072559;28;20039;-64
2022/10/05 11:42:24;;;;;;;1.27;1.27;;;16.30;66.80;;;;;;5068362;28;20132;-63
2022/10/05 11:45:10;;;;;;;1.55;1.45;;;16.30;66.50;;;;;;5069101;28;20055;-62
2022/10/05 11:47:50;;;;;;;1.40;1.30;;;16.40;66.40;;;;;;5070844;28;20009;-64
2022/10/05 11:50:22;;;;;;;1.58;1.48;;;16.40;66.40;;;;;;5071271;28;20085;-63
2022/10/05 11:52:57;;;;;;;1.67;1.58;;;16.40;66.30;;;;;;5064378;28;20032;-62
2022/10/05 11:55:34;;;;;;;1.38;1.38;;;16.40;66.30;;;;;;5078061;28;20036;-60
2022/10/05 11:58:06;;;;;;;1.73;1.63;;;16.40;66.10;;;;;;5072489;28;20033;-64
2022/10/05 12:01:27;;;;;;;1.50;1.40;;;16.40;66.10;;;;;;5072351;28;20103;-63
2022/10/05 12:04:19;;;;;;;1.25;1.15;;;16.50;66.20;;;;;;5031932;28;20043;-64
2022/10/05 12:07:06;;;;;;;1.90;1.77;;;16.50;66.30;;;;;;5064410;28;20044;-62
2022/10/05 12:10:13;;;;;;;1.45;1.35;;;16.50;66.40;;;;;;5067676;28;20032;-63
2022/10/05 12:13:01;;;;;;;1.23;1.13;;;16.60;66.20;;;;;;5055890;28;20041;-64
2022/10/05 12:15:50;;;;;;;1.35;1.25;;;16.60;66.40;;;;;;5058718;28;20017;-63
2022/10/05 12:18:51;;;;;;;1.73;1.55;;;16.60;66.20;;;;;;5055972;28;20048;-63
2022/10/05 12:21:27;;;;;;;1.50;1.40;;;16.60;66.20;;;;;;5050957;28;20056;-64
2022/10/05 12:24:12;;;;;;;2.17;1.67;;;16.60;66.20;;;;;;5065257;28;20016;-63
2022/10/05 12:26:45;;;;;;;1.67;1.58;;;16.70;65.90;;;;;;5071266;28;20056;-64
2022/10/05 12:29:25;;;;;;;1.80;1.70;;;16.70;65.80;;;;;;5059630;28;20029;-64
2022/10/05 12:31:57;;;;;;;1.85;1.60;;;16.70;65.80;;;;;;5071812;28;20274;-64
2022/10/05 12:34:51;;;;;;;1.58;1.38;;;16.70;65.80;;;;;;5059825;28;21306;-64
2022/10/05 12:37:35;;;;;;;2.05;1.70;;;16.70;65.70;;;;;;5070288;28;20055;-63
2022/10/05 12:40:11;;;;;;;1.33;1.23;;;16.70;65.60;;;;;;5079738;28;20032;-64
2022/10/05 12:43:04;;;;;;;1.48;1.38;;;16.60;65.40;;;;;;5071008;28;20021;-64
2022/10/05 12:45:49;;;;;;;1.88;1.77;;;16.60;65.30;;;;;;5071335;28;20021;-64
2022/10/05 12:48:17;;;;;;;2.58;1.80;;;16.60;65.50;;;;;;5064630;28;20035;-65
2022/10/05 12:50:54;;;;;;;1.70;1.60;;;16.50;65.50;;;;;;5071274;28;20029;-63
2022/10/05 12:53:31;;;;;;;1.20;1.20;;;16.50;65.70;;;;;;5070903;28;20025;-64
2022/10/05 12:56:18;;;;;;;1.38;1.27;;;16.50;65.90;;;;;;5068551;28;20119;-64
2022/10/05 12:58:49;;;;;;;1.70;1.60;;;16.50;66.00;;;;;;5073857;28;20151;-64
2022/10/05 13:01:14;;;;;;;;;;;16.40;66.00;;;;;;5057021;28;20063;-64
2022/10/05 13:04:11;;;;;;;1.60;1.50;;;16.40;65.80;;;;;;5061446;28;20007;-60
2022/10/05 13:07:11;;;;;;;1.83;1.73;;;16.40;65.90;;;;;;5057866;28;20028;-65
2022/10/05 13:09:49;;;;;;;1.48;1.38;;;16.40;65.80;;;;;;5038617;28;21736;-62
2022/10/05 13:12:47;;;;;;;1.60;1.50;;;16.30;65.90;;;;;;5074038;28;20115;-65
2022/10/05 13:15:27;;;;;;;2.10;1.90;;;16.30;66.00;;;;;;5068546;28;20067;-65
2022/10/05 13:18:11;;;;;;;1.88;1.77;;;16.30;66.00;;;;;;5066966;28;20032;-62
2022/10/05 13:20:36;;;;;;;1.52;1.42;;;16.20;66.10;;;;;;5063402;28;20020;-63
2022/10/05 13:23:23;;;;;;;1.65;1.55;;;16.20;66.30;;;;;;5074116;28;20055;-64
2022/10/05 13:25:55;;;;;;;1.88;1.75;;;16.20;66.40;;;;;;5081737;28;20039;-64
2022/10/05 13:28:26;;;;;;;1.60;1.50;;;16.20;66.30;;;;;;5068608;28;20053;-65
2022/10/05 13:31:05;;;;;;;2.30;1.83;;;16.20;66.30;;;;;;5073781;28;20016;-65
2022/10/05 13:33:52;;;;;;;2.22;1.95;;;16.20;66.50;;;;;;5071877;28;20086;-66
2022/10/05 13:36:34;;;;;;;1.77;1.67;;;16.20;66.50;;;;;;5065867;28;20039;-64
2022/10/05 13:39:30;;;;;;;2.42;1.95;;;16.10;66.50;;;;;;5072435;28;20017;-64
2022/10/05 13:42:07;;;;;;;2.30;2.00;;;16.20;66.60;;;;;;5049569;28;20071;-65
2022/10/05 13:44:54;;;;;;;2.17;1.98;;;16.20;66.60;;;;;;5073314;28;20033;-65
2022/10/05 13:47:43;;;;;;;2.95;1.98;;;16.20;66.60;;;;;;5068530;28;20020;-64
2022/10/05 13:50:30;;;;;;;1.80;1.58;;;16.20;66.60;;;;;;5072969;28;20038;-64
2022/10/05 13:53:17;;;;;;;2.42;1.70;;;16.20;66.60;;;;;;5070659;28;20032;-64
2022/10/05 13:55:59;;;;;;;1.95;1.77;;;16.20;66.60;;;;;;5073715;28;20031;-65
2022/10/05 13:58:24;;;;;;;;;;;16.20;66.90;;;;;;5064533;28;20028;-64
2022/10/05 14:00:54;;;;;;;1.85;1.70;;;16.10;66.60;;;;;;5056623;28;19912;-64
2022/10/05 14:03:35;;;;;;;1.85;1.75;;;16.10;66.70;;;;;;5066166;28;20040;-65
2022/10/05 14:06:25;;;;;;;;;;;16.20;66.60;;;;;;5065581;28;20084;-64
2022/10/05 14:08:52;;;;;;;1.40;1.30;;;16.10;66.50;;;;;;5062719;28;19926;-64
2022/10/05 14:11:21;;;;;;;1.77;1.58;;;16.10;66.70;;;;;;5069086;28;20066;-64
2022/10/05 14:13:47;;;;;;;1.98;1.80;;;16.10;66.70;;;;;;5088353;28;20386;-64